sensor_id;sensor_type;location;lat;lon;timestamp;P1;durP1;ratioP1;P2;durP2;ratioP2
32934;SDS011;19292;51.532;7.650;2022-10-31T00:00:56;2.42;;;1.67;;
32934;SDS011;19292;51.532;7.650;2022-10-31T00:03:22;2.08;;;1.52;;
32934;SDS011;19292;51.532;7.650;2022-10-31T00:05:48;2.45;;;1.50;;
32934;SDS011;19292;51.532;7.650;2022-10-31T00:08:14;4.25;;;1.98;;
32934;SDS011;19292;51.532;7.650;2022-10-31T00:10:41;1.98;;;1.35;;
32934;SDS011;19292;51.532;7.650;2022-10-31T00:13:07;2.45;;;2.25;;
32934;SDS011;19292;51.532;7.650;2022-10-31T00:15:33;1.80;;;1.35;;
32934;SDS011;19292;51.532;7.650;2022-10-31T00:17:59;0.80;;;0.80;;
32934;SDS011;19292;51.532;7.650;2022-10-31T00:20:25;1.05;;;1.05;;
32934;SDS011;19292;51.532;7.650;2022-10-31T00:22:50;2.03;;;1.80;;
32934;SDS011;19292;51.532;7.650;2022-10-31T00:25:16;1.52;;;1.38;;
32934;SDS011;19292;51.532;7.650;2022-10-31T00:27:41;1.95;;;1.80;;
32934;SDS011;19292;51.532;7.650;2022-10-31T00:30:06;1.50;;;1.40;;
32934;SDS011;19292;51.532;7.650;2022-10-31T00:32:32;1.50;;;1.20;;
32934;SDS011;19292;51.532;7.650;2022-10-31T00:34:57;1.88;;;1.73;;
32934;SDS011;19292;51.532;7.650;2022-10-31T00:37:23;2.63;;;1.40;;
32934;SDS011;19292;51.532;7.650;2022-10-31T00:39:48;2.72;;;1.55;;
32934;SDS011;19292;51.532;7.650;2022-10-31T00:42:14;2.22;;;1.58;;
32934;SDS011;19292;51.532;7.650;2022-10-31T00:44:40;1.95;;;1.45;;
32934;SDS011;19292;51.532;7.650;2022-10-31T00:47:05;2.35;;;1.35;;
32934;SDS011;19292;51.532;7.650;2022-10-31T00:49:30;1.58;;;1.45;;
32934;SDS011;19292;51.532;7.650;2022-10-31T00:51:56;3.17;;;2.22;;
32934;SDS011;19292;51.532;7.650;2022-10-31T00:54:21;5.10;;;2.30;;
32934;SDS011;19292;51.532;7.650;2022-10-31T00:56:46;1.98;;;1.83;;
32934;SDS011;19292;51.532;7.650;2022-10-31T00:59:12;2.38;;;2.17;;
32934;SDS011;19292;51.532;7.650;2022-10-31T01:01:37;2.78;;;1.63;;
32934;SDS011;19292;51.532;7.650;2022-10-31T01:04:02;2.05;;;1.40;;
32934;SDS011;19292;51.532;7.650;2022-10-31T01:06:28;2.72;;;1.52;;
32934;SDS011;19292;51.532;7.650;2022-10-31T01:08:53;3.40;;;2.28;;
32934;SDS011;19292;51.532;7.650;2022-10-31T01:11:20;2.60;;;1.70;;
32934;SDS011;19292;51.532;7.650;2022-10-31T01:13:47;2.63;;;1.92;;
32934;SDS011;19292;51.532;7.650;2022-10-31T01:16:14;3.25;;;2.53;;
32934;SDS011;19292;51.532;7.650;2022-10-31T01:18:41;1.67;;;1.58;;
32934;SDS011;19292;51.532;7.650;2022-10-31T01:21:07;2.22;;;1.20;;
32934;SDS011;19292;51.532;7.650;2022-10-31T01:23:34;2.13;;;1.50;;
32934;SDS011;19292;51.532;7.650;2022-10-31T01:28:28;1.80;;;1.52;;
32934;SDS011;19292;51.532;7.650;2022-10-31T01:30:54;2.65;;;2.03;;
32934;SDS011;19292;51.532;7.650;2022-10-31T01:33:19;1.92;;;1.33;;
32934;SDS011;19292;51.532;7.650;2022-10-31T01:35:45;5.50;;;2.40;;
32934;SDS011;19292;51.532;7.650;2022-10-31T01:38:10;3.47;;;2.10;;
32934;SDS011;19292;51.532;7.650;2022-10-31T01:40:35;4.05;;;3.63;;
32934;SDS011;19292;51.532;7.650;2022-10-31T01:43:01;1.55;;;1.45;;
32934;SDS011;19292;51.532;7.650;2022-10-31T01:45:26;1.85;;;1.50;;
32934;SDS011;19292;51.532;7.650;2022-10-31T01:47:51;1.52;;;1.40;;
32934;SDS011;19292;51.532;7.650;2022-10-31T01:50:23;2.45;;;2.17;;
32934;SDS011;19292;51.532;7.650;2022-10-31T01:52:53;1.00;;;1.00;;
32934;SDS011;19292;51.532;7.650;2022-10-31T01:55:32;1.38;;;1.27;;
32934;SDS011;19292;51.532;7.650;2022-10-31T01:58:12;2.10;;;1.55;;
32934;SDS011;19292;51.532;7.650;2022-10-31T02:00:39;3.45;;;1.98;;
32934;SDS011;19292;51.532;7.650;2022-10-31T02:03:07;1.50;;;1.30;;
32934;SDS011;19292;51.532;7.650;2022-10-31T02:05:32;1.85;;;1.73;;
32934;SDS011;19292;51.532;7.650;2022-10-31T02:10:45;1.45;;;1.17;;
32934;SDS011;19292;51.532;7.650;2022-10-31T02:13:11;3.45;;;0.90;;
32934;SDS011;19292;51.532;7.650;2022-10-31T02:15:38;3.00;;;2.25;;
32934;SDS011;19292;51.532;7.650;2022-10-31T02:18:04;2.08;;;1.85;;
32934;SDS011;19292;51.532;7.650;2022-10-31T02:20:32;3.00;;;1.98;;
32934;SDS011;19292;51.532;7.650;2022-10-31T02:26:48;1.75;;;1.60;;
32934;SDS011;19292;51.532;7.650;2022-10-31T02:31:33;2.50;;;2.08;;
32934;SDS011;19292;51.532;7.650;2022-10-31T02:36:57;1.92;;;1.48;;
32934;SDS011;19292;51.532;7.650;2022-10-31T02:39:26;2.38;;;1.90;;
32934;SDS011;19292;51.532;7.650;2022-10-31T02:47:01;3.35;;;1.83;;
32934;SDS011;19292;51.532;7.650;2022-10-31T02:49:35;2.15;;;1.95;;
32934;SDS011;19292;51.532;7.650;2022-10-31T02:52:01;2.83;;;1.63;;
32934;SDS011;19292;51.532;7.650;2022-10-31T02:54:27;1.88;;;1.58;;
32934;SDS011;19292;51.532;7.650;2022-10-31T02:56:54;2.70;;;1.75;;
32934;SDS011;19292;51.532;7.650;2022-10-31T02:59:31;3.33;;;1.60;;
32934;SDS011;19292;51.532;7.650;2022-10-31T03:04:33;3.22;;;1.85;;
32934;SDS011;19292;51.532;7.650;2022-10-31T03:07:11;2.17;;;1.98;;
32934;SDS011;19292;51.532;7.650;2022-10-31T03:17:56;2.05;;;1.80;;
32934;SDS011;19292;51.532;7.650;2022-10-31T03:20:30;1.43;;;1.20;;
32934;SDS011;19292;51.532;7.650;2022-10-31T03:23:00;2.90;;;2.00;;
32934;SDS011;19292;51.532;7.650;2022-10-31T03:25:26;2.30;;;1.70;;
32934;SDS011;19292;51.532;7.650;2022-10-31T03:27:52;1.58;;;1.42;;
32934;SDS011;19292;51.532;7.650;2022-10-31T03:30:18;2.83;;;1.80;;
32934;SDS011;19292;51.532;7.650;2022-10-31T03:32:46;1.85;;;1.67;;
32934;SDS011;19292;51.532;7.650;2022-10-31T03:35:14;1.70;;;1.60;;
32934;SDS011;19292;51.532;7.650;2022-10-31T03:37:41;2.60;;;2.38;;
32934;SDS011;19292;51.532;7.650;2022-10-31T03:40:07;2.67;;;2.00;;
32934;SDS011;19292;51.532;7.650;2022-10-31T03:42:35;1.80;;;1.65;;
32934;SDS011;19292;51.532;7.650;2022-10-31T03:45:15;2.58;;;2.38;;
32934;SDS011;19292;51.532;7.650;2022-10-31T03:47:44;2.53;;;1.98;;
32934;SDS011;19292;51.532;7.650;2022-10-31T03:50:10;2.67;;;2.47;;
32934;SDS011;19292;51.532;7.650;2022-10-31T03:55:09;1.43;;;1.33;;
32934;SDS011;19292;51.532;7.650;2022-10-31T03:58:04;2.35;;;2.05;;
32934;SDS011;19292;51.532;7.650;2022-10-31T04:00:32;2.20;;;2.00;;
32934;SDS011;19292;51.532;7.650;2022-10-31T04:03:07;1.40;;;1.33;;
32934;SDS011;19292;51.532;7.650;2022-10-31T04:05:35;2.75;;;1.70;;
32934;SDS011;19292;51.532;7.650;2022-10-31T04:08:03;1.58;;;1.48;;
32934;SDS011;19292;51.532;7.650;2022-10-31T04:10:31;2.72;;;2.10;;
32934;SDS011;19292;51.532;7.650;2022-10-31T04:12:58;2.20;;;1.95;;
32934;SDS011;19292;51.532;7.650;2022-10-31T04:15:28;2.53;;;2.33;;
32934;SDS011;19292;51.532;7.650;2022-10-31T04:17:55;3.22;;;2.92;;
32934;SDS011;19292;51.532;7.650;2022-10-31T04:20:30;2.65;;;2.22;;
32934;SDS011;19292;51.532;7.650;2022-10-31T04:22:56;2.28;;;1.73;;
32934;SDS011;19292;51.532;7.650;2022-10-31T04:25:21;2.47;;;1.88;;
32934;SDS011;19292;51.532;7.650;2022-10-31T04:27:47;2.42;;;2.22;;
32934;SDS011;19292;51.532;7.650;2022-10-31T04:30:12;2.33;;;2.13;;
32934;SDS011;19292;51.532;7.650;2022-10-31T04:32:37;2.95;;;2.33;;
32934;SDS011;19292;51.532;7.650;2022-10-31T04:35:03;2.35;;;1.73;;
32934;SDS011;19292;51.532;7.650;2022-10-31T04:37:28;3.05;;;2.75;;
32934;SDS011;19292;51.532;7.650;2022-10-31T04:39:54;3.83;;;2.58;;
32934;SDS011;19292;51.532;7.650;2022-10-31T04:42:19;2.33;;;2.05;;
32934;SDS011;19292;51.532;7.650;2022-10-31T04:44:44;2.53;;;2.30;;
32934;SDS011;19292;51.532;7.650;2022-10-31T04:47:09;5.30;;;4.68;;
32934;SDS011;19292;51.532;7.650;2022-10-31T04:49:35;2.38;;;2.17;;
32934;SDS011;19292;51.532;7.650;2022-10-31T04:52:00;2.17;;;1.90;;
32934;SDS011;19292;51.532;7.650;2022-10-31T04:54:25;2.25;;;1.75;;
32934;SDS011;19292;51.532;7.650;2022-10-31T04:56:51;2.65;;;2.08;;
32934;SDS011;19292;51.532;7.650;2022-10-31T04:59:16;2.35;;;2.13;;
32934;SDS011;19292;51.532;7.650;2022-10-31T05:01:41;2.35;;;2.10;;
32934;SDS011;19292;51.532;7.650;2022-10-31T05:04:07;3.80;;;2.70;;
32934;SDS011;19292;51.532;7.650;2022-10-31T05:06:32;2.35;;;2.08;;
32934;SDS011;19292;51.532;7.650;2022-10-31T05:08:57;5.15;;;2.80;;
32934;SDS011;19292;51.532;7.650;2022-10-31T05:11:23;2.50;;;1.63;;
32934;SDS011;19292;51.532;7.650;2022-10-31T05:13:49;2.30;;;2.10;;
32934;SDS011;19292;51.532;7.650;2022-10-31T05:16:14;4.40;;;2.85;;
32934;SDS011;19292;51.532;7.650;2022-10-31T05:18:39;4.68;;;2.05;;
32934;SDS011;19292;51.532;7.650;2022-10-31T05:21:05;3.20;;;2.78;;
32934;SDS011;19292;51.532;7.650;2022-10-31T05:23:30;3.47;;;2.47;;
32934;SDS011;19292;51.532;7.650;2022-10-31T05:25:55;4.93;;;2.53;;
32934;SDS011;19292;51.532;7.650;2022-10-31T05:28:20;3.13;;;2.78;;
32934;SDS011;19292;51.532;7.650;2022-10-31T05:30:46;2.67;;;2.47;;
32934;SDS011;19292;51.532;7.650;2022-10-31T05:33:11;2.97;;;2.63;;
32934;SDS011;19292;51.532;7.650;2022-10-31T05:35:36;3.60;;;2.15;;
32934;SDS011;19292;51.532;7.650;2022-10-31T05:38:02;3.55;;;2.50;;
32934;SDS011;19292;51.532;7.650;2022-10-31T05:40:27;2.63;;;2.45;;
32934;SDS011;19292;51.532;7.650;2022-10-31T05:42:54;1.98;;;1.75;;
32934;SDS011;19292;51.532;7.650;2022-10-31T05:45:21;3.63;;;2.53;;
32934;SDS011;19292;51.532;7.650;2022-10-31T05:47:50;3.65;;;2.47;;
32934;SDS011;19292;51.532;7.650;2022-10-31T05:50:16;3.42;;;2.30;;
32934;SDS011;19292;51.532;7.650;2022-10-31T05:52:41;3.50;;;2.88;;
32934;SDS011;19292;51.532;7.650;2022-10-31T05:55:06;3.80;;;2.78;;
32934;SDS011;19292;51.532;7.650;2022-10-31T05:57:32;3.88;;;2.25;;
32934;SDS011;19292;51.532;7.650;2022-10-31T05:59:58;3.47;;;2.53;;
32934;SDS011;19292;51.532;7.650;2022-10-31T06:02:23;4.05;;;3.08;;
32934;SDS011;19292;51.532;7.650;2022-10-31T06:04:49;2.35;;;2.13;;
32934;SDS011;19292;51.532;7.650;2022-10-31T06:07:14;1.63;;;1.25;;
32934;SDS011;19292;51.532;7.650;2022-10-31T06:09:39;3.17;;;2.22;;
32934;SDS011;19292;51.532;7.650;2022-10-31T06:12:05;5.20;;;3.10;;
32934;SDS011;19292;51.532;7.650;2022-10-31T06:14:30;1.98;;;1.88;;
32934;SDS011;19292;51.532;7.650;2022-10-31T06:16:55;3.50;;;2.88;;
32934;SDS011;19292;51.532;7.650;2022-10-31T06:19:21;2.63;;;2.42;;
32934;SDS011;19292;51.532;7.650;2022-10-31T06:21:46;2.10;;;1.88;;
32934;SDS011;19292;51.532;7.650;2022-10-31T06:24:12;2.90;;;2.35;;
32934;SDS011;19292;51.532;7.650;2022-10-31T06:26:37;3.67;;;2.10;;
32934;SDS011;19292;51.532;7.650;2022-10-31T06:29:02;2.05;;;1.75;;
32934;SDS011;19292;51.532;7.650;2022-10-31T06:31:28;6.82;;;3.47;;
32934;SDS011;19292;51.532;7.650;2022-10-31T06:33:53;2.47;;;2.08;;
32934;SDS011;19292;51.532;7.650;2022-10-31T06:36:18;3.78;;;2.78;;
32934;SDS011;19292;51.532;7.650;2022-10-31T06:38:44;2.97;;;2.35;;
32934;SDS011;19292;51.532;7.650;2022-10-31T06:41:09;2.70;;;2.50;;
32934;SDS011;19292;51.532;7.650;2022-10-31T06:43:34;2.45;;;2.25;;
32934;SDS011;19292;51.532;7.650;2022-10-31T06:46:03;4.97;;;3.00;;
32934;SDS011;19292;51.532;7.650;2022-10-31T06:48:29;3.45;;;2.55;;
32934;SDS011;19292;51.532;7.650;2022-10-31T06:50:57;2.65;;;2.45;;
32934;SDS011;19292;51.532;7.650;2022-10-31T06:53:23;2.25;;;1.88;;
32934;SDS011;19292;51.532;7.650;2022-10-31T06:55:49;2.47;;;2.05;;
32934;SDS011;19292;51.532;7.650;2022-10-31T06:58:14;4.68;;;3.20;;
32934;SDS011;19292;51.532;7.650;2022-10-31T07:00:39;3.17;;;2.22;;
32934;SDS011;19292;51.532;7.650;2022-10-31T07:03:06;4.10;;;2.65;;
32934;SDS011;19292;51.532;7.650;2022-10-31T07:05:34;3.05;;;2.75;;
32934;SDS011;19292;51.532;7.650;2022-10-31T07:08:00;5.68;;;3.28;;
32934;SDS011;19292;51.532;7.650;2022-10-31T07:10:28;3.40;;;2.08;;
32934;SDS011;19292;51.532;7.650;2022-10-31T07:12:55;3.67;;;3.20;;
32934;SDS011;19292;51.532;7.650;2022-10-31T07:15:21;5.18;;;4.75;;
32934;SDS011;19292;51.532;7.650;2022-10-31T07:17:47;1.95;;;1.75;;
32934;SDS011;19292;51.532;7.650;2022-10-31T07:20:12;3.60;;;2.90;;
32934;SDS011;19292;51.532;7.650;2022-10-31T07:22:38;3.60;;;2.38;;
32934;SDS011;19292;51.532;7.650;2022-10-31T07:25:03;5.10;;;2.72;;
32934;SDS011;19292;51.532;7.650;2022-10-31T07:27:34;5.30;;;3.20;;
32934;SDS011;19292;51.532;7.650;2022-10-31T07:30:00;3.20;;;1.90;;
32934;SDS011;19292;51.532;7.650;2022-10-31T07:32:26;3.15;;;2.22;;
32934;SDS011;19292;51.532;7.650;2022-10-31T07:34:51;3.58;;;2.50;;
32934;SDS011;19292;51.532;7.650;2022-10-31T07:37:16;2.88;;;2.00;;
32934;SDS011;19292;51.532;7.650;2022-10-31T07:39:42;10.27;;;3.75;;
32934;SDS011;19292;51.532;7.650;2022-10-31T07:42:07;2.78;;;2.40;;
32934;SDS011;19292;51.532;7.650;2022-10-31T07:44:32;4.97;;;4.13;;
32934;SDS011;19292;51.532;7.650;2022-10-31T07:46:58;2.80;;;2.50;;
32934;SDS011;19292;51.532;7.650;2022-10-31T07:49:23;4.65;;;2.95;;
32934;SDS011;19292;51.532;7.650;2022-10-31T07:51:50;2.10;;;1.85;;
32934;SDS011;19292;51.532;7.650;2022-10-31T07:54:16;4.72;;;3.70;;
32934;SDS011;19292;51.532;7.650;2022-10-31T07:56:41;6.47;;;3.53;;
32934;SDS011;19292;51.532;7.650;2022-10-31T07:59:06;3.05;;;2.75;;
32934;SDS011;19292;51.532;7.650;2022-10-31T08:01:32;3.33;;;2.70;;
32934;SDS011;19292;51.532;7.650;2022-10-31T08:03:57;4.32;;;3.85;;
32934;SDS011;19292;51.532;7.650;2022-10-31T08:06:22;5.45;;;3.70;;
32934;SDS011;19292;51.532;7.650;2022-10-31T08:08:48;5.90;;;5.40;;
32934;SDS011;19292;51.532;7.650;2022-10-31T08:11:13;4.28;;;2.92;;
32934;SDS011;19292;51.532;7.650;2022-10-31T08:13:38;4.32;;;3.22;;
32934;SDS011;19292;51.532;7.650;2022-10-31T08:16:05;4.75;;;4.05;;
32934;SDS011;19292;51.532;7.650;2022-10-31T08:18:32;4.20;;;3.72;;
32934;SDS011;19292;51.532;7.650;2022-10-31T08:20:57;6.80;;;4.30;;
32934;SDS011;19292;51.532;7.650;2022-10-31T08:23:23;3.95;;;2.80;;
32934;SDS011;19292;51.532;7.650;2022-10-31T08:25:48;3.38;;;3.00;;
32934;SDS011;19292;51.532;7.650;2022-10-31T08:28:14;6.40;;;4.00;;
32934;SDS011;19292;51.532;7.650;2022-10-31T08:30:40;5.03;;;2.70;;
32934;SDS011;19292;51.532;7.650;2022-10-31T08:35:33;5.30;;;3.78;;
32934;SDS011;19292;51.532;7.650;2022-10-31T08:37:59;6.60;;;3.45;;
32934;SDS011;19292;51.532;7.650;2022-10-31T08:40:25;7.07;;;4.55;;
32934;SDS011;19292;51.532;7.650;2022-10-31T08:45:22;2.55;;;2.25;;
32934;SDS011;19292;51.532;7.650;2022-10-31T08:47:48;2.85;;;2.47;;
32934;SDS011;19292;51.532;7.650;2022-10-31T08:50:13;4.03;;;2.90;;
32934;SDS011;19292;51.532;7.650;2022-10-31T08:52:38;3.47;;;2.45;;
32934;SDS011;19292;51.532;7.650;2022-10-31T08:55:04;2.83;;;2.55;;
32934;SDS011;19292;51.532;7.650;2022-10-31T08:57:30;5.90;;;2.72;;
32934;SDS011;19292;51.532;7.650;2022-10-31T08:59:55;3.65;;;2.90;;
32934;SDS011;19292;51.532;7.650;2022-10-31T09:02:20;5.57;;;2.42;;
32934;SDS011;19292;51.532;7.650;2022-10-31T09:04:46;4.85;;;2.85;;
32934;SDS011;19292;51.532;7.650;2022-10-31T09:07:11;3.90;;;3.55;;
32934;SDS011;19292;51.532;7.650;2022-10-31T09:09:36;5.32;;;3.75;;
32934;SDS011;19292;51.532;7.650;2022-10-31T09:12:02;5.45;;;3.25;;
32934;SDS011;19292;51.532;7.650;2022-10-31T09:14:27;4.18;;;2.78;;
32934;SDS011;19292;51.532;7.650;2022-10-31T09:16:53;4.97;;;3.20;;
32934;SDS011;19292;51.532;7.650;2022-10-31T09:19:18;3.72;;;2.75;;
32934;SDS011;19292;51.532;7.650;2022-10-31T09:21:43;5.00;;;3.75;;
32934;SDS011;19292;51.532;7.650;2022-10-31T09:24:09;5.68;;;3.10;;
32934;SDS011;19292;51.532;7.650;2022-10-31T09:26:34;3.35;;;2.25;;
32934;SDS011;19292;51.532;7.650;2022-10-31T09:28:59;5.95;;;2.95;;
32934;SDS011;19292;51.532;7.650;2022-10-31T09:31:27;3.05;;;2.67;;
32934;SDS011;19292;51.532;7.650;2022-10-31T09:33:52;3.92;;;2.88;;
32934;SDS011;19292;51.532;7.650;2022-10-31T09:36:19;4.20;;;3.40;;
32934;SDS011;19292;51.532;7.650;2022-10-31T09:38:44;4.07;;;3.20;;
32934;SDS011;19292;51.532;7.650;2022-10-31T09:43:56;4.60;;;2.97;;
32934;SDS011;19292;51.532;7.650;2022-10-31T09:46:47;6.55;;;4.15;;
32934;SDS011;19292;51.532;7.650;2022-10-31T09:49:30;3.80;;;3.33;;
32934;SDS011;19292;51.532;7.650;2022-10-31T09:52:04;3.42;;;3.13;;
32934;SDS011;19292;51.532;7.650;2022-10-31T09:57:05;4.43;;;3.03;;
32934;SDS011;19292;51.532;7.650;2022-10-31T09:59:33;5.05;;;4.07;;
32934;SDS011;19292;51.532;7.650;2022-10-31T10:02:14;3.72;;;2.92;;
32934;SDS011;19292;51.532;7.650;2022-10-31T10:04:48;4.82;;;3.00;;
32934;SDS011;19292;51.532;7.650;2022-10-31T10:15:47;4.95;;;3.25;;
32934;SDS011;19292;51.532;7.650;2022-10-31T10:26:38;3.75;;;3.13;;
32934;SDS011;19292;51.532;7.650;2022-10-31T10:31:57;4.00;;;2.97;;
32934;SDS011;19292;51.532;7.650;2022-10-31T10:35:09;3.22;;;2.92;;
32934;SDS011;19292;51.532;7.650;2022-10-31T10:37:25;7.38;;;3.25;;
32934;SDS011;19292;51.532;7.650;2022-10-31T10:40:02;5.25;;;3.33;;
32934;SDS011;19292;51.532;7.650;2022-10-31T10:42:33;3.80;;;3.13;;
32934;SDS011;19292;51.532;7.650;2022-10-31T10:45:19;4.57;;;3.60;;
32934;SDS011;19292;51.532;7.650;2022-10-31T10:48:16;6.43;;;4.18;;
32934;SDS011;19292;51.532;7.650;2022-10-31T10:50:57;4.28;;;3.00;;
32934;SDS011;19292;51.532;7.650;2022-10-31T10:53:34;4.95;;;4.05;;
32934;SDS011;19292;51.532;7.650;2022-10-31T10:56:17;3.97;;;3.58;;
32934;SDS011;19292;51.532;7.650;2022-10-31T10:58:47;3.35;;;2.47;;
32934;SDS011;19292;51.532;7.650;2022-10-31T11:01:13;5.13;;;3.28;;
32934;SDS011;19292;51.532;7.650;2022-10-31T11:03:39;5.32;;;3.75;;
32934;SDS011;19292;51.532;7.650;2022-10-31T11:06:15;5.60;;;3.00;;
32934;SDS011;19292;51.532;7.650;2022-10-31T11:08:41;5.68;;;3.50;;
32934;SDS011;19292;51.532;7.650;2022-10-31T11:11:19;5.22;;;3.50;;
32934;SDS011;19292;51.532;7.650;2022-10-31T11:13:51;6.20;;;4.05;;
32934;SDS011;19292;51.532;7.650;2022-10-31T11:18:52;2.85;;;1.70;;
32934;SDS011;19292;51.532;7.650;2022-10-31T11:23:46;5.30;;;3.83;;
32934;SDS011;19292;51.532;7.650;2022-10-31T11:26:19;4.38;;;3.55;;
32934;SDS011;19292;51.532;7.650;2022-10-31T11:28:44;7.60;;;4.47;;
32934;SDS011;19292;51.532;7.650;2022-10-31T11:31:21;5.75;;;2.72;;
32934;SDS011;19292;51.532;7.650;2022-10-31T11:33:47;5.50;;;3.95;;
32934;SDS011;19292;51.532;7.650;2022-10-31T11:36:24;4.43;;;2.90;;
32934;SDS011;19292;51.532;7.650;2022-10-31T11:38:51;3.97;;;3.20;;
32934;SDS011;19292;51.532;7.650;2022-10-31T11:41:18;5.93;;;4.05;;
32934;SDS011;19292;51.532;7.650;2022-10-31T11:43:50;5.38;;;3.65;;
32934;SDS011;19292;51.532;7.650;2022-10-31T11:46:20;4.72;;;3.83;;
32934;SDS011;19292;51.532;7.650;2022-10-31T11:48:52;6.93;;;5.35;;
32934;SDS011;19292;51.532;7.650;2022-10-31T11:51:28;4.40;;;2.95;;
32934;SDS011;19292;51.532;7.650;2022-10-31T11:53:57;6.45;;;4.22;;
32934;SDS011;19292;51.532;7.650;2022-10-31T11:56:23;6.25;;;3.95;;
32934;SDS011;19292;51.532;7.650;2022-10-31T11:58:59;9.13;;;5.43;;
32934;SDS011;19292;51.532;7.650;2022-10-31T12:01:28;5.53;;;3.88;;
32934;SDS011;19292;51.532;7.650;2022-10-31T12:03:58;5.70;;;3.67;;
32934;SDS011;19292;51.532;7.650;2022-10-31T12:06:34;4.90;;;3.10;;
32934;SDS011;19292;51.532;7.650;2022-10-31T12:09:01;9.40;;;5.30;;
32934;SDS011;19292;51.532;7.650;2022-10-31T12:11:46;7.93;;;5.53;;
32934;SDS011;19292;51.532;7.650;2022-10-31T12:19:30;5.38;;;3.17;;
32934;SDS011;19292;51.532;7.650;2022-10-31T12:30:20;6.93;;;2.65;;
32934;SDS011;19292;51.532;7.650;2022-10-31T12:45:55;5.10;;;3.42;;
32934;SDS011;19292;51.532;7.650;2022-10-31T12:56:46;6.07;;;4.38;;
32934;SDS011;19292;51.532;7.650;2022-10-31T12:59:21;7.30;;;4.47;;
32934;SDS011;19292;51.532;7.650;2022-10-31T13:01:51;7.32;;;4.82;;
32934;SDS011;19292;51.532;7.650;2022-10-31T13:06:47;5.25;;;4.75;;
32934;SDS011;19292;51.532;7.650;2022-10-31T13:09:19;5.07;;;4.30;;
32934;SDS011;19292;51.532;7.650;2022-10-31T13:11:56;6.40;;;5.05;;
32934;SDS011;19292;51.532;7.650;2022-10-31T13:17:27;5.15;;;3.80;;
32934;SDS011;19292;51.532;7.650;2022-10-31T13:20:00;8.20;;;4.70;;
32934;SDS011;19292;51.532;7.650;2022-10-31T13:22:47;6.03;;;3.45;;
32934;SDS011;19292;51.532;7.650;2022-10-31T13:25:15;5.03;;;3.35;;
32934;SDS011;19292;51.532;7.650;2022-10-31T13:30:23;5.75;;;4.97;;
32934;SDS011;19292;51.532;7.650;2022-10-31T13:38:24;5.85;;;3.67;;
32934;SDS011;19292;51.532;7.650;2022-10-31T13:46:21;3.75;;;3.30;;
32934;SDS011;19292;51.532;7.650;2022-10-31T13:48:51;5.30;;;3.38;;
32934;SDS011;19292;51.532;7.650;2022-10-31T13:51:24;3.45;;;2.90;;
32934;SDS011;19292;51.532;7.650;2022-10-31T13:56:29;5.47;;;3.80;;
32934;SDS011;19292;51.532;7.650;2022-10-31T13:59:00;4.25;;;3.58;;
32934;SDS011;19292;51.532;7.650;2022-10-31T14:01:29;6.03;;;4.95;;
32934;SDS011;19292;51.532;7.650;2022-10-31T14:04:05;8.20;;;5.10;;
32934;SDS011;19292;51.532;7.650;2022-10-31T14:06:42;4.88;;;3.10;;
32934;SDS011;19292;51.532;7.650;2022-10-31T14:09:27;5.63;;;4.68;;
32934;SDS011;19292;51.532;7.650;2022-10-31T14:11:55;4.00;;;3.55;;
32934;SDS011;19292;51.532;7.650;2022-10-31T14:14:29;6.18;;;5.00;;
32934;SDS011;19292;51.532;7.650;2022-10-31T14:16:57;8.10;;;6.22;;
32934;SDS011;19292;51.532;7.650;2022-10-31T14:19:23;6.20;;;4.45;;
32934;SDS011;19292;51.532;7.650;2022-10-31T14:21:49;7.78;;;5.78;;
32934;SDS011;19292;51.532;7.650;2022-10-31T14:26:59;6.53;;;3.78;;
32934;SDS011;19292;51.532;7.650;2022-10-31T14:29:43;7.93;;;5.05;;
32934;SDS011;19292;51.532;7.650;2022-10-31T14:46:03;5.88;;;4.40;;
32934;SDS011;19292;51.532;7.650;2022-10-31T14:51:36;3.75;;;3.20;;
32934;SDS011;19292;51.532;7.650;2022-10-31T14:54:05;5.43;;;3.50;;
32934;SDS011;19292;51.532;7.650;2022-10-31T14:56:34;4.80;;;4.28;;
32934;SDS011;19292;51.532;7.650;2022-10-31T14:59:14;8.02;;;5.18;;
32934;SDS011;19292;51.532;7.650;2022-10-31T15:01:41;6.85;;;4.72;;
32934;SDS011;19292;51.532;7.650;2022-10-31T15:04:17;4.05;;;3.13;;
32934;SDS011;19292;51.532;7.650;2022-10-31T15:06:54;6.25;;;4.07;;
32934;SDS011;19292;51.532;7.650;2022-10-31T15:09:35;4.40;;;3.55;;
32934;SDS011;19292;51.532;7.650;2022-10-31T15:12:16;7.10;;;4.07;;
32934;SDS011;19292;51.532;7.650;2022-10-31T15:14:49;4.85;;;4.05;;
32934;SDS011;19292;51.532;7.650;2022-10-31T15:17:14;3.42;;;3.13;;
32934;SDS011;19292;51.532;7.650;2022-10-31T15:19:40;3.30;;;3.00;;
32934;SDS011;19292;51.532;7.650;2022-10-31T15:22:08;4.30;;;3.65;;
32934;SDS011;19292;51.532;7.650;2022-10-31T15:24:36;5.32;;;4.10;;
32934;SDS011;19292;51.532;7.650;2022-10-31T15:27:02;5.75;;;3.42;;
32934;SDS011;19292;51.532;7.650;2022-10-31T15:29:28;5.13;;;3.63;;
32934;SDS011;19292;51.532;7.650;2022-10-31T15:32:08;5.57;;;2.80;;
32934;SDS011;19292;51.532;7.650;2022-10-31T15:34:48;4.45;;;3.45;;
32934;SDS011;19292;51.532;7.650;2022-10-31T15:37:15;2.72;;;2.47;;
32934;SDS011;19292;51.532;7.650;2022-10-31T15:39:42;6.57;;;3.95;;
32934;SDS011;19292;51.532;7.650;2022-10-31T15:44:45;5.45;;;4.65;;
32934;SDS011;19292;51.532;7.650;2022-10-31T15:47:31;4.43;;;4.03;;
32934;SDS011;19292;51.532;7.650;2022-10-31T15:49:58;5.10;;;3.50;;
32934;SDS011;19292;51.532;7.650;2022-10-31T15:52:38;5.57;;;3.53;;
32934;SDS011;19292;51.532;7.650;2022-10-31T15:57:38;7.07;;;4.82;;
32934;SDS011;19292;51.532;7.650;2022-10-31T16:02:30;6.28;;;3.38;;
32934;SDS011;19292;51.532;7.650;2022-10-31T16:04:57;3.72;;;3.40;;
32934;SDS011;19292;51.532;7.650;2022-10-31T16:07:25;4.78;;;3.78;;
32934;SDS011;19292;51.532;7.650;2022-10-31T16:12:22;6.97;;;5.40;;
32934;SDS011;19292;51.532;7.650;2022-10-31T16:14:52;4.72;;;4.00;;
32934;SDS011;19292;51.532;7.650;2022-10-31T16:17:19;5.07;;;3.72;;
32934;SDS011;19292;51.532;7.650;2022-10-31T16:19:51;5.03;;;4.50;;
32934;SDS011;19292;51.532;7.650;2022-10-31T16:22:23;5.05;;;3.67;;
32934;SDS011;19292;51.532;7.650;2022-10-31T16:27:19;5.57;;;5.00;;
32934;SDS011;19292;51.532;7.650;2022-10-31T16:29:50;7.95;;;5.45;;
32934;SDS011;19292;51.532;7.650;2022-10-31T16:32:23;4.97;;;3.47;;
32934;SDS011;19292;51.532;7.650;2022-10-31T16:35:00;4.93;;;3.22;;
32934;SDS011;19292;51.532;7.650;2022-10-31T16:37:37;4.82;;;3.90;;
32934;SDS011;19292;51.532;7.650;2022-10-31T16:40:03;5.03;;;3.90;;
32934;SDS011;19292;51.532;7.650;2022-10-31T16:42:28;5.43;;;4.00;;
32934;SDS011;19292;51.532;7.650;2022-10-31T16:44:54;6.20;;;3.65;;
32934;SDS011;19292;51.532;7.650;2022-10-31T16:47:19;3.88;;;3.03;;
32934;SDS011;19292;51.532;7.650;2022-10-31T16:49:46;2.75;;;2.55;;
32934;SDS011;19292;51.532;7.650;2022-10-31T16:52:13;1.67;;;1.58;;
32934;SDS011;19292;51.532;7.650;2022-10-31T16:54:38;2.40;;;2.10;;
32934;SDS011;19292;51.532;7.650;2022-10-31T16:57:04;1.40;;;1.30;;
32934;SDS011;19292;51.532;7.650;2022-10-31T16:59:31;1.35;;;1.25;;
32934;SDS011;19292;51.532;7.650;2022-10-31T17:01:58;3.10;;;1.30;;
32934;SDS011;19292;51.532;7.650;2022-10-31T17:04:23;1.40;;;1.30;;
32934;SDS011;19292;51.532;7.650;2022-10-31T17:06:49;1.58;;;1.48;;
32934;SDS011;19292;51.532;7.650;2022-10-31T17:09:14;1.67;;;1.30;;
32934;SDS011;19292;51.532;7.650;2022-10-31T17:11:42;0.95;;;0.88;;
32934;SDS011;19292;51.532;7.650;2022-10-31T17:14:10;1.10;;;1.00;;
32934;SDS011;19292;51.532;7.650;2022-10-31T17:16:36;1.02;;;0.65;;
32934;SDS011;19292;51.532;7.650;2022-10-31T17:19:02;1.50;;;1.40;;
32934;SDS011;19292;51.532;7.650;2022-10-31T17:21:27;0.93;;;0.93;;
32934;SDS011;19292;51.532;7.650;2022-10-31T17:23:53;1.27;;;0.95;;
32934;SDS011;19292;51.532;7.650;2022-10-31T17:26:18;2.75;;;1.35;;
32934;SDS011;19292;51.532;7.650;2022-10-31T17:28:45;1.17;;;0.75;;
32934;SDS011;19292;51.532;7.650;2022-10-31T17:31:21;2.13;;;1.08;;